Terminal Aerodrome Forecast
Issued by NWS

Home | Current Version | Previous Version | Text Only | Print | Product List | Glossary On
Versions: 1 2 3 4 5 6 7 8 9 10 11 12 13 14 15 16 17 18 19
000
FTUS45 KBOU 210539
TAFAPA
TAF
KAPA 210539Z 2106/2206 23007KT P6SM FEW100 BKN220
     FM211400 VRB05KT P6SM FEW140 BKN220
     FM211700 01011KT P6SM FEW100 BKN220
     FM212300 34007KT P6SM SCT060 BKN100
     FM220400 24006KT P6SM SCT060 BKN100=

USA.gov is the U.S. government's official web portal to all federal, state and local government web resources and services.